Harwood, Missouri
Current Conditions -  °F | °C
As of 11:55 AM on Monday 22 Dec 2014 (Local Time) from KGLY Reporting Station
Drizzle Drizzle  
Wind Chill: 41°   Ceiling: 300
Heat Index: 45°   Visibility: 0.75mi
Dew Point: 45°   Wind: 7mph
Humidity: 100%   Direction: 150°SSE
Pressure: 29.55"   Gusts: NA
Location:  37.96°N, 94.15°W
Report Text: KGLY 221755Z AUTO 15006KT 3/4SM -DZ OVC003 07/07 A2955 RMK AO2 P0001
Loading
Personal Weather Stations






























Interactive Weather Map New forecast layout! Learn more

10-Day Weather Forecast

Advertisements
Track Severe Weather on mobile